createdAt,value
2023-01-29T00:00:10.187Z,20.48
2023-01-29T00:02:39.925Z,20.25
2023-01-29T00:05:25.964Z,19.33
2023-01-29T00:07:55.130Z,19.75
2023-01-29T00:10:24.719Z,20.50
2023-01-29T00:12:52.978Z,20.15
2023-01-29T00:15:20.812Z,20.55
2023-01-29T00:17:48.749Z,20.40
2023-01-29T00:20:16.746Z,19.77
2023-01-29T00:22:44.367Z,20.15
2023-01-29T00:25:12.160Z,20.48
2023-01-29T00:27:39.578Z,20.42
2023-01-29T00:30:12.989Z,18.75
2023-01-29T00:32:40.851Z,20.10
2023-01-29T00:35:09.315Z,18.95
2023-01-29T00:37:36.895Z,20.90
2023-01-29T00:40:05.440Z,20.23
2023-01-29T00:42:51.460Z,20.50
2023-01-29T00:45:19.150Z,19.50
2023-01-29T00:47:46.602Z,20.73
2023-01-29T00:50:14.348Z,20.52
2023-01-29T00:52:42.364Z,19.85
2023-01-29T00:55:11.076Z,20.05
2023-01-29T00:57:38.545Z,19.27
2023-01-29T01:00:09.194Z,19.80
2023-01-29T01:02:55.194Z,18.55
2023-01-29T01:05:22.934Z,19.55
2023-01-29T01:07:53.046Z,19.70
2023-01-29T01:10:24.577Z,20.50
2023-01-29T01:12:59.533Z,19.07
2023-01-29T01:15:32.756Z,20.55
2023-01-29T01:18:01.441Z,20.15
2023-01-29T01:20:31.522Z,19.80
2023-01-29T01:22:58.997Z,19.50
2023-01-29T01:25:27.112Z,18.92
2023-01-29T01:27:57.789Z,20.85
2023-01-29T01:30:26.142Z,19.98
2023-01-29T01:32:53.923Z,20.70
2023-01-29T01:35:21.366Z,19.90
2023-01-29T01:37:49.579Z,20.20
2023-01-29T01:40:20.291Z,19.67
2023-01-29T01:42:49.592Z,20.58
2023-01-29T01:45:36.633Z,19.30
2023-01-29T01:48:17.168Z,19.62
2023-01-29T01:50:53.872Z,19.05
2023-01-29T01:53:34.328Z,18.55
2023-01-29T01:56:05.488Z,19.52
2023-01-29T01:58:44.131Z,17.83
2023-01-29T02:01:12.769Z,18.80
2023-01-29T02:04:03.353Z,18.98
2023-01-29T02:06:49.998Z,17.30
2023-01-29T02:09:35.914Z,18.27
2023-01-29T02:12:12.975Z,18.75
2023-01-29T02:14:41.918Z,18.73
2023-01-29T02:17:12.126Z,17.85
2023-01-29T02:20:13.722Z,18.55
2023-01-29T02:23:15.326Z,16.92
2023-01-29T02:26:04.920Z,17.73
2023-01-29T02:28:49.065Z,17.52
2023-01-29T02:31:30.731Z,16.55
2023-01-29T02:34:18.800Z,17.35
2023-01-29T02:36:49.128Z,18.33
2023-01-29T02:39:20.109Z,17.50
2023-01-29T02:42:01.006Z,17.17
2023-01-29T02:44:44.034Z,17.50
2023-01-29T02:47:17.373Z,16.73
2023-01-29T02:49:53.430Z,16.90
2023-01-29T02:52:33.020Z,17.30
2023-01-29T02:55:05.027Z,16.52
2023-01-29T02:57:36.412Z,16.23
2023-01-29T03:00:10.561Z,16.58
2023-01-29T03:02:46.325Z,17.12
2023-01-29T03:05:18.760Z,16.62
2023-01-29T03:07:52.079Z,15.55
2023-01-29T03:10:31.104Z,15.95
2023-01-29T03:13:13.272Z,15.70
2023-01-29T03:15:51.218Z,15.20
2023-01-29T03:18:22.840Z,15.60
2023-01-29T03:20:54.586Z,14.87
2023-01-29T03:23:45.738Z,14.65
2023-01-29T03:26:37.111Z,15.93
2023-01-29T03:29:24.216Z,13.65
2023-01-29T03:32:09.085Z,14.10
2023-01-29T03:34:45.104Z,13.93
2023-01-29T03:37:40.277Z,15.35
2023-01-29T03:40:08.718Z,13.48
2023-01-29T03:42:45.200Z,13.98
2023-01-29T03:45:36.290Z,13.52
2023-01-29T03:48:29.307Z,13.23
2023-01-29T03:51:21.146Z,13.23
2023-01-29T03:54:13.815Z,12.25
2023-01-29T03:56:54.397Z,11.90
2023-01-29T03:59:36.822Z,12.18
2023-01-29T04:04:38.770Z,11.77
2023-01-29T04:07:18.945Z,12.68
2023-01-29T04:09:51.571Z,11.05
2023-01-29T04:12:23.576Z,12.63
2023-01-29T04:14:53.352Z,12.68
2023-01-29T04:17:29.893Z,11.52
2023-01-29T04:19:59.732Z,10.90
2023-01-29T04:22:35.874Z,12.52
2023-01-29T04:25:08.576Z,11.10
2023-01-29T04:30:18.973Z,10.25
2023-01-29T04:33:16.584Z,11.35
2023-01-29T04:35:56.072Z,11.32
2023-01-29T04:38:42.314Z,11.77
2023-01-29T04:41:22.615Z,12.18
2023-01-29T04:44:16.114Z,11.95
2023-01-29T04:46:51.737Z,10.93
2023-01-29T04:49:45.068Z,12.52
2023-01-29T04:52:21.419Z,11.43
2023-01-29T04:55:01.441Z,12.18
2023-01-29T04:57:55.392Z,11.55
2023-01-29T05:00:27.677Z,11.52
2023-01-29T05:02:56.625Z,11.10
2023-01-29T05:05:24.100Z,12.65
2023-01-29T05:07:51.557Z,12.85
2023-01-29T05:10:20.510Z,11.85
2023-01-29T05:12:51.672Z,11.30
2023-01-29T05:15:24.214Z,11.07
2023-01-29T05:17:53.818Z,11.40
2023-01-29T05:20:21.587Z,10.60
2023-01-29T05:22:49.254Z,12.48
2023-01-29T05:25:23.333Z,10.55
2023-01-29T05:28:04.944Z,11.93
2023-01-29T05:30:33.876Z,10.55
2023-01-29T05:33:01.716Z,10.95
2023-01-29T05:35:29.809Z,10.93
2023-01-29T05:37:57.461Z,11.95
2023-01-29T05:40:25.220Z,10.90
2023-01-29T05:42:52.670Z,11.38
2023-01-29T05:45:20.560Z,11.40
2023-01-29T05:47:48.249Z,10.75
2023-01-29T05:50:16.833Z,11.18
2023-01-29T05:52:44.392Z,11.00
2023-01-29T05:55:12.094Z,12.15
2023-01-29T05:57:40.801Z,10.98
2023-01-29T06:00:09.319Z,11.18
2023-01-29T06:02:40.319Z,10.18
2023-01-29T06:05:08.586Z,10.85
2023-01-29T06:07:36.444Z,10.77
2023-01-29T06:10:04.209Z,11.63
2023-01-29T06:12:32.051Z,10.85
2023-01-29T06:14:59.744Z,10.70
2023-01-29T06:17:27.118Z,11.38
2023-01-29T06:19:54.801Z,11.02
2023-01-29T06:22:22.160Z,10.55
2023-01-29T06:24:49.577Z,9.90
2023-01-29T06:27:17.314Z,10.13
2023-01-29T06:29:44.720Z,9.88
2023-01-29T06:32:12.224Z,9.90
2023-01-29T06:34:40.100Z,9.50
2023-01-29T06:37:08.102Z,10.07
2023-01-29T06:39:35.554Z,9.15
2023-01-29T06:42:03.399Z,10.05
2023-01-29T06:44:30.814Z,10.10
2023-01-29T06:46:58.227Z,10.20
2023-01-29T06:49:25.901Z,9.93
2023-01-29T06:51:53.351Z,9.40
2023-01-29T06:54:20.749Z,9.52
2023-01-29T06:56:48.430Z,9.60
2023-01-29T06:59:15.998Z,10.07
2023-01-29T07:01:44.432Z,9.23
2023-01-29T07:04:12.265Z,8.70
2023-01-29T07:06:39.789Z,8.43
2023-01-29T07:09:07.313Z,9.30
2023-01-29T07:11:35.396Z,8.80
2023-01-29T07:14:02.813Z,8.52
2023-01-29T07:16:30.352Z,8.77
2023-01-29T07:18:58.088Z,8.77
2023-01-29T07:21:25.581Z,8.30
2023-01-29T07:23:53.016Z,9.23
2023-01-29T07:26:20.762Z,8.60
2023-01-29T07:28:48.148Z,7.93
2023-01-29T07:31:15.754Z,8.50
2023-01-29T07:33:44.532Z,8.23
2023-01-29T07:36:12.821Z,6.85
2023-01-29T07:38:40.435Z,7.80
2023-01-29T07:41:09.516Z,7.40
2023-01-29T07:43:36.943Z,8.48
2023-01-29T07:46:04.709Z,8.10
2023-01-29T07:48:32.577Z,7.55
2023-01-29T07:51:00.265Z,7.75
2023-01-29T07:53:28.511Z,7.53
2023-01-29T07:55:56.229Z,7.12
2023-01-29T07:58:23.723Z,7.45
2023-01-29T08:00:51.317Z,8.10
2023-01-29T08:03:20.196Z,8.48
2023-01-29T08:05:47.932Z,9.48
2023-01-29T08:08:15.421Z,8.65
2023-01-29T08:10:43.232Z,7.85
2023-01-29T08:13:10.651Z,7.80
2023-01-29T08:18:25.773Z,11.15
2023-01-29T08:20:53.492Z,9.45
2023-01-29T08:23:20.905Z,7.62
2023-01-29T08:25:48.650Z,8.02
2023-01-29T08:28:16.078Z,6.97
2023-01-29T08:30:44.144Z,6.28
2023-01-29T08:33:12.163Z,6.70
2023-01-29T08:35:41.185Z,7.65
2023-01-29T08:38:09.273Z,7.85
2023-01-29T08:40:36.969Z,6.93
2023-01-29T08:43:07.806Z,6.62
2023-01-29T08:45:39.322Z,6.30
2023-01-29T08:48:07.424Z,7.30
2023-01-29T08:50:35.623Z,7.05
2023-01-29T08:53:07.554Z,7.35
2023-01-29T08:55:39.507Z,7.87
2023-01-29T08:58:09.355Z,6.90
2023-01-29T09:00:37.388Z,6.78
2023-01-29T09:03:05.014Z,7.20
2023-01-29T09:05:32.722Z,6.62
2023-01-29T09:08:00.128Z,6.78
2023-01-29T09:10:27.540Z,7.22
2023-01-29T09:12:55.208Z,6.32
2023-01-29T09:15:22.819Z,6.25
2023-01-29T09:17:50.210Z,6.35
2023-01-29T09:20:18.289Z,5.95
2023-01-29T09:22:46.390Z,6.28
2023-01-29T09:25:14.155Z,6.80
2023-01-29T09:27:42.156Z,6.15
2023-01-29T09:30:10.241Z,5.62
2023-01-29T09:32:53.078Z,6.55
2023-01-29T09:35:24.177Z,6.30
2023-01-29T09:37:52.376Z,6.22
2023-01-29T09:40:28.449Z,6.22
2023-01-29T09:43:48.986Z,6.15
2023-01-29T09:46:38.885Z,5.87
2023-01-29T09:49:14.809Z,6.25
2023-01-29T09:51:46.224Z,6.47
2023-01-29T09:54:36.307Z,5.65
2023-01-29T09:57:03.722Z,5.90
2023-01-29T09:59:32.151Z,6.37
2023-01-29T10:02:33.115Z,6.00
2023-01-29T10:05:17.291Z,5.40
2023-01-29T10:07:57.849Z,5.25
2023-01-29T10:10:49.953Z,5.60
2023-01-29T10:13:26.056Z,5.95
2023-01-29T10:16:25.815Z,5.72
2023-01-29T10:19:13.373Z,6.10
2023-01-29T10:22:05.546Z,5.62
2023-01-29T10:24:37.950Z,5.70
2023-01-29T10:27:18.840Z,5.95
2023-01-29T10:29:49.301Z,6.20
2023-01-29T10:32:19.563Z,5.60
2023-01-29T10:34:51.806Z,6.22
2023-01-29T10:39:51.236Z,5.68
2023-01-29T10:42:32.157Z,5.43
2023-01-29T10:45:18.596Z,5.93
2023-01-29T10:48:06.250Z,5.87
2023-01-29T10:50:46.555Z,5.85
2023-01-29T10:53:45.381Z,5.95
2023-01-29T10:56:44.631Z,5.72
2023-01-29T10:59:38.421Z,6.35
2023-01-29T11:02:18.028Z,5.95
2023-01-29T11:04:45.866Z,5.87
2023-01-29T11:07:14.313Z,5.50
2023-01-29T11:10:02.720Z,5.37
2023-01-29T11:12:32.852Z,5.28
2023-01-29T11:15:08.148Z,5.12
2023-01-29T11:17:35.944Z,5.75
2023-01-29T11:20:06.748Z,6.05
2023-01-29T11:22:34.267Z,5.70
2023-01-29T11:25:17.232Z,5.97
2023-01-29T11:27:47.501Z,6.45
2023-01-29T11:30:34.559Z,7.28
2023-01-29T11:33:26.222Z,7.62
2023-01-29T11:35:53.863Z,7.10
2023-01-29T11:38:28.972Z,7.03
2023-01-29T11:41:07.640Z,6.90
2023-01-29T11:43:35.077Z,6.80
2023-01-29T11:46:05.306Z,6.68
2023-01-29T11:48:59.133Z,7.05
2023-01-29T11:51:33.788Z,6.35
2023-01-29T11:54:02.472Z,9.13
2023-01-29T11:56:38.757Z,8.00
2023-01-29T11:59:08.299Z,6.30
2023-01-29T12:01:40.336Z,5.03
2023-01-29T12:04:26.446Z,7.18
2023-01-29T12:06:54.123Z,7.55
2023-01-29T12:09:29.689Z,7.00
2023-01-29T12:12:33.604Z,6.37
2023-01-29T12:15:25.182Z,6.45
2023-01-29T12:17:58.531Z,6.18
2023-01-29T12:20:31.119Z,5.62
2023-01-29T12:23:26.374Z,4.82
2023-01-29T12:25:59.982Z,5.07
2023-01-29T12:28:36.114Z,4.72
2023-01-29T12:31:29.241Z,5.55
2023-01-29T12:34:24.661Z,4.45
2023-01-29T12:37:06.939Z,5.50
2023-01-29T12:39:34.449Z,4.97
2023-01-29T12:42:31.605Z,4.45
2023-01-29T12:45:01.920Z,5.22
2023-01-29T12:47:43.870Z,5.68
2023-01-29T12:50:21.372Z,5.25
2023-01-29T12:53:04.153Z,5.68
2023-01-29T12:55:42.435Z,5.32
2023-01-29T12:58:15.702Z,5.15
2023-01-29T13:00:49.303Z,5.12
2023-01-29T13:03:17.276Z,6.05
2023-01-29T13:05:48.575Z,4.47
2023-01-29T13:08:22.116Z,5.47
2023-01-29T13:10:51.561Z,8.27
2023-01-29T13:13:36.176Z,5.43
2023-01-29T13:16:06.378Z,5.15
2023-01-29T13:18:58.275Z,5.90
2023-01-29T13:21:29.872Z,5.35
2023-01-29T13:24:02.637Z,4.37
2023-01-29T13:26:31.738Z,4.78
2023-01-29T13:28:59.149Z,5.12
2023-01-29T13:31:33.319Z,5.47
2023-01-29T13:34:06.325Z,5.15
2023-01-29T13:36:34.292Z,4.93
2023-01-29T13:39:05.227Z,5.65
2023-01-29T13:41:42.334Z,5.70
2023-01-29T13:44:27.109Z,5.90
2023-01-29T13:47:00.196Z,5.22
2023-01-29T13:49:54.443Z,5.80
2023-01-29T13:52:35.828Z,5.55
2023-01-29T13:55:14.032Z,4.40
2023-01-29T13:57:44.160Z,5.60
2023-01-29T14:00:20.940Z,5.75
2023-01-29T14:03:08.820Z,6.30
2023-01-29T14:05:40.578Z,6.35
2023-01-29T14:08:14.178Z,5.75
2023-01-29T14:10:42.852Z,6.10
2023-01-29T14:13:19.576Z,6.75
2023-01-29T14:15:59.051Z,5.97
2023-01-29T14:18:30.853Z,6.20
2023-01-29T14:21:03.862Z,5.60
2023-01-29T14:23:36.232Z,6.53
2023-01-29T14:26:18.910Z,5.68
2023-01-29T14:29:04.929Z,6.43
2023-01-29T14:31:44.064Z,6.43
2023-01-29T14:34:19.297Z,6.40
2023-01-29T14:36:48.149Z,7.22
2023-01-29T14:39:29.067Z,7.10
2023-01-29T14:41:57.302Z,9.65
2023-01-29T14:44:55.779Z,9.88
2023-01-29T14:47:38.641Z,12.18
2023-01-29T14:50:28.892Z,8.23
2023-01-29T14:53:00.341Z,7.60
2023-01-29T14:55:37.897Z,8.35
2023-01-29T14:58:06.999Z,7.72
2023-01-29T15:00:37.423Z,7.47
2023-01-29T15:03:13.970Z,7.10
2023-01-29T15:05:42.290Z,7.22
2023-01-29T15:08:21.129Z,6.45
2023-01-29T15:11:13.694Z,7.10
2023-01-29T15:14:02.976Z,7.57
2023-01-29T15:16:35.691Z,10.02
2023-01-29T15:24:06.680Z,26.58
2023-01-29T15:26:36.055Z,29.27
2023-01-29T15:29:05.852Z,21.67
2023-01-29T15:31:35.403Z,13.27
2023-01-29T15:34:06.530Z,11.38
2023-01-29T15:36:34.240Z,15.20
2023-01-29T15:39:22.645Z,13.27
2023-01-29T15:41:52.172Z,11.40
2023-01-29T15:44:22.337Z,16.37
2023-01-29T15:46:55.908Z,12.98
2023-01-29T15:49:34.506Z,11.12
2023-01-29T15:52:16.225Z,9.88
2023-01-29T15:54:43.873Z,9.25
2023-01-29T15:57:26.280Z,11.05
2023-01-29T15:59:54.920Z,12.00
2023-01-29T16:02:34.756Z,9.63
2023-01-29T16:05:07.274Z,9.73
2023-01-29T16:07:35.361Z,8.63
2023-01-29T16:10:03.346Z,9.35
2023-01-29T16:12:32.979Z,9.15
2023-01-29T16:15:02.219Z,9.70
2023-01-29T16:17:36.904Z,10.32
2023-01-29T16:20:07.581Z,10.98
2023-01-29T16:22:37.378Z,11.27
2023-01-29T16:25:06.052Z,10.65
2023-01-29T16:27:33.839Z,9.95
2023-01-29T16:30:02.147Z,11.32
2023-01-29T16:32:30.539Z,11.35
2023-01-29T16:34:59.574Z,11.45
2023-01-29T16:37:33.619Z,12.23
2023-01-29T16:40:01.049Z,13.13
2023-01-29T16:42:30.726Z,9.50
2023-01-29T16:45:04.856Z,9.82
2023-01-29T16:47:34.356Z,13.85
2023-01-29T16:50:19.989Z,15.45
2023-01-29T16:53:00.825Z,13.00
2023-01-29T16:55:33.506Z,11.20
2023-01-29T16:58:05.108Z,10.45
2023-01-29T17:00:33.374Z,11.27
2023-01-29T17:03:04.960Z,10.88
2023-01-29T17:05:35.472Z,10.88
2023-01-29T17:08:03.740Z,11.07
2023-01-29T17:10:31.504Z,13.52
2023-01-29T17:13:04.274Z,13.90
2023-01-29T17:15:52.321Z,12.15
2023-01-29T17:18:24.270Z,11.45
2023-01-29T17:20:54.807Z,11.30
2023-01-29T17:23:22.526Z,11.82
2023-01-29T17:25:49.994Z,9.85
2023-01-29T17:28:18.261Z,10.88
2023-01-29T17:30:56.612Z,11.93
2023-01-29T17:33:28.201Z,11.27
2023-01-29T17:35:56.059Z,11.60
2023-01-29T17:38:26.383Z,10.70
2023-01-29T17:40:57.746Z,11.02
2023-01-29T17:43:25.227Z,10.55
2023-01-29T17:45:52.753Z,11.15
2023-01-29T17:48:25.668Z,11.02
2023-01-29T17:50:59.862Z,10.50
2023-01-29T17:53:43.312Z,10.15
2023-01-29T17:56:18.253Z,10.20
2023-01-29T17:58:46.041Z,10.05
2023-01-29T18:01:13.624Z,10.38
2023-01-29T18:03:41.710Z,9.98
2023-01-29T18:06:19.191Z,10.43
2023-01-29T18:08:46.989Z,10.63
2023-01-29T18:11:14.437Z,12.52
2023-01-29T18:13:42.081Z,11.12
2023-01-29T18:16:09.864Z,11.65
2023-01-29T18:18:37.415Z,10.50
2023-01-29T18:21:05.263Z,11.35
2023-01-29T18:23:33.001Z,12.00
2023-01-29T18:26:00.857Z,12.88
2023-01-29T18:28:28.390Z,13.88
2023-01-29T18:30:56.107Z,15.27
2023-01-29T18:33:24.299Z,14.85
2023-01-29T18:35:54.857Z,15.13
2023-01-29T18:38:23.214Z,13.43
2023-01-29T18:40:50.642Z,14.60
2023-01-29T18:43:18.323Z,13.77
2023-01-29T18:45:46.381Z,13.13
2023-01-29T18:48:14.231Z,12.13
2023-01-29T18:50:41.604Z,13.75
2023-01-29T18:53:09.432Z,14.05
2023-01-29T18:55:36.854Z,14.43
2023-01-29T18:58:26.487Z,14.95
2023-01-29T19:00:52.148Z,14.75
2023-01-29T19:03:19.669Z,12.82
2023-01-29T19:05:47.255Z,13.27
2023-01-29T19:08:15.182Z,15.27
2023-01-29T19:10:42.651Z,16.02
2023-01-29T19:13:10.412Z,17.40
2023-01-29T19:15:43.357Z,15.80
2023-01-29T19:18:12.561Z,15.25
2023-01-29T19:20:42.464Z,15.60
2023-01-29T19:23:09.986Z,15.40
2023-01-29T19:25:39.946Z,14.48
2023-01-29T19:28:08.062Z,15.30
2023-01-29T19:30:37.200Z,15.27
2023-01-29T19:33:04.759Z,14.07
2023-01-29T19:35:33.779Z,16.58
2023-01-29T19:38:01.539Z,13.80
2023-01-29T19:40:29.129Z,13.10
2023-01-29T19:42:57.040Z,13.40
2023-01-29T19:45:49.280Z,14.93
2023-01-29T19:48:21.371Z,14.00
2023-01-29T19:51:00.333Z,14.93
2023-01-29T19:53:28.944Z,18.45
2023-01-29T19:55:58.666Z,16.70
2023-01-29T19:58:26.401Z,13.75
2023-01-29T20:00:56.314Z,13.45
2023-01-29T20:03:24.541Z,11.63
2023-01-29T20:05:52.453Z,12.32
2023-01-29T20:08:20.047Z,11.50
2023-01-29T20:10:48.639Z,11.88
2023-01-29T20:13:16.581Z,10.75
2023-01-29T20:15:45.665Z,11.32
2023-01-29T20:18:13.887Z,11.40
2023-01-29T20:20:43.020Z,11.27
2023-01-29T20:23:11.480Z,11.43
2023-01-29T20:25:39.506Z,10.98
2023-01-29T20:28:12.168Z,11.23
2023-01-29T20:30:41.674Z,11.23
2023-01-29T20:33:09.517Z,12.05
2023-01-29T20:35:37.221Z,12.32
2023-01-29T20:38:05.418Z,14.05
2023-01-29T20:40:33.095Z,16.70
2023-01-29T20:43:00.854Z,16.65
2023-01-29T20:45:29.054Z,16.50
2023-01-29T20:47:57.934Z,16.50
2023-01-29T20:50:25.432Z,15.77
2023-01-29T20:52:53.403Z,16.58
2023-01-29T20:55:20.923Z,15.48
2023-01-29T20:58:06.419Z,19.62
2023-01-29T21:00:34.680Z,29.15
2023-01-29T21:03:02.601Z,28.33
2023-01-29T21:05:30.013Z,27.75
2023-01-29T21:07:57.758Z,26.20
2023-01-29T21:10:25.510Z,23.25
2023-01-29T21:12:54.701Z,26.55
2023-01-29T21:15:23.378Z,29.10
2023-01-29T21:17:51.681Z,25.05
2023-01-29T21:20:19.404Z,19.00
2023-01-29T21:22:49.100Z,17.48
2023-01-29T21:25:19.107Z,16.92
2023-01-29T21:27:46.881Z,16.65
2023-01-29T21:30:14.394Z,16.50
2023-01-29T21:32:41.931Z,15.65
2023-01-29T21:35:10.295Z,15.73
2023-01-29T21:37:38.022Z,14.95
2023-01-29T21:40:06.317Z,15.10
2023-01-29T21:42:52.657Z,14.95
2023-01-29T21:45:20.260Z,15.70
2023-01-29T21:47:47.917Z,17.87
2023-01-29T21:50:16.239Z,17.30
2023-01-29T21:52:43.853Z,13.10
2023-01-29T21:55:11.556Z,13.57
2023-01-29T21:57:39.140Z,13.62
2023-01-29T22:00:07.161Z,13.43
2023-01-29T22:02:34.906Z,14.70
2023-01-29T22:05:17.607Z,14.10
2023-01-29T22:07:47.663Z,14.38
2023-01-29T22:10:19.913Z,13.65
2023-01-29T22:12:48.246Z,14.73
2023-01-29T22:15:15.945Z,14.07
2023-01-29T22:17:43.812Z,15.65
2023-01-29T22:20:13.101Z,16.23
2023-01-29T22:22:40.793Z,15.05
2023-01-29T22:25:08.830Z,13.90
2023-01-29T22:27:36.813Z,13.38
2023-01-29T22:30:05.317Z,14.18
2023-01-29T22:32:32.904Z,12.57
2023-01-29T22:35:00.699Z,12.93
2023-01-29T22:37:28.144Z,13.05
2023-01-29T22:39:55.536Z,13.38
2023-01-29T22:42:23.224Z,13.18
2023-01-29T22:44:50.659Z,13.70
2023-01-29T22:47:18.360Z,14.43
2023-01-29T22:49:49.109Z,13.93
2023-01-29T22:52:16.543Z,14.27
2023-01-29T22:54:44.303Z,13.50
2023-01-29T22:57:13.123Z,14.25
2023-01-29T22:59:40.814Z,14.10
2023-01-29T23:02:08.928Z,14.18
2023-01-29T23:04:36.908Z,13.80
2023-01-29T23:07:04.303Z,12.93
2023-01-29T23:09:31.671Z,12.93
2023-01-29T23:11:59.541Z,12.85
2023-01-29T23:14:26.972Z,13.35
2023-01-29T23:16:54.400Z,13.25
2023-01-29T23:19:22.423Z,13.07
2023-01-29T23:21:49.989Z,13.80
2023-01-29T23:24:17.455Z,13.82
2023-01-29T23:27:03.849Z,13.38
2023-01-29T23:29:31.251Z,12.90
2023-01-29T23:31:58.892Z,13.05
2023-01-29T23:34:26.267Z,13.18
2023-01-29T23:36:53.645Z,13.02
2023-01-29T23:39:21.782Z,13.30
2023-01-29T23:41:49.164Z,13.25
2023-01-29T23:44:16.734Z,12.75
2023-01-29T23:46:44.486Z,12.40
2023-01-29T23:49:12.226Z,12.55
2023-01-29T23:51:39.574Z,13.45
2023-01-29T23:54:07.295Z,13.70
2023-01-29T23:56:34.815Z,13.20
2023-01-29T23:59:02.220Z,12.73
